Aérodrome :
LOGIN :

S'inscrire | Disclaimer

   EN    FR    IT 

 










Légende :    VFR   VFR Marginal   IFR   IFR Intensif   IFR Très Intensif
Visi : 
Plafond : 
>= 8 km
>= 3000ft
5 à 8 km
1000 à 3000 ft
1500m à 5 km
500 à 1000 ft
800 à 1500m
200 à 500 ft
< 800m
< 200 ft
Symboles :   Orages  Brouillard  Fortes neiges  Fortes précipitations  Vent > 20 kt
SIGMETs :   Divers  Orages  Givrage  Turbulence  Onde Orograph.  Cendres Volcan.






- Altitude de l'aérodrome : 13 ft
- Code IATA : LYX


EGMD - Lydd

DERNIER METAR :
  • 142350Z AUTO 08007KT 030V100 9999 SCT025/// BKN031/// 04/03 Q1003

METARs EXPIRÉS :
  • 142320Z AUTO 36005KT 330V030 9999 BKN024/// BKN029/// 04/03 Q1002
  • 142250Z AUTO 08005KT 9999 BKN025/// BKN031/// 05/03 Q1002
  • 142220Z AUTO 09007KT 9999 BKN024/// 06/03 Q1002
  • 142150Z AUTO 10007KT 9999 SCT023/// BKN028/// 06/03 Q1002
  • 142120Z AUTO 10008KT 9999 SCT024/// BKN029/// 06/03 Q1002
  • 142050Z AUTO 12008KT 9999 SCT023/// BKN028/// 07/04 Q1002

TAF TAF EGMD
Valide du 15 à 00h jusqu'au 15 à 09h UTC


142300Z 1500/1509 03010KT 9999 BKN030
TEMPO 1503/1509 6000 RA SHRA BKN014
PROB30
TEMPO 1506/1509 36015G25KT 3000 +SHRA BKN009
ATIS : +44 1797 322 422



MET'MAP, la Météo Aéronautique d'un coup d'oeil ! - Copyright ORBIFLY Décembre 2007 - Disclaimer

ORBIFLY MET'MAP TEAM :

Programmation & Développement : Alexandra Zaïnal
Conception & Développement : Baudouin d'Aumeries
Co-Programmation & Développement : Marc-Olivier Méhu
Soutien technique & logistique : Manuel Goepfert

Contact : metmap@orbifly.com




SOURCES & CREDITS :

   NOAA